createdAt,value
2018-07-16T00:00:28.956Z,80.20
2018-07-16T00:02:58.031Z,80.20
2018-07-16T00:05:27.190Z,80.70
2018-07-16T00:07:56.263Z,81.30
2018-07-16T00:10:25.326Z,81.50
2018-07-16T00:12:54.397Z,81.70
2018-07-16T00:15:23.455Z,82.00
2018-07-16T00:17:52.551Z,82.40
2018-07-16T00:20:21.643Z,82.60
2018-07-16T00:22:50.742Z,82.70
2018-07-16T00:25:19.786Z,83.10
2018-07-16T00:27:48.839Z,84.40
2018-07-16T00:54:30.531Z,83.80
2018-07-16T00:56:59.579Z,83.60
2018-07-16T00:59:28.672Z,83.60
2018-07-16T01:01:57.762Z,83.50
2018-07-16T01:04:26.822Z,83.90
2018-07-16T01:06:55.951Z,83.80
2018-07-16T01:09:25.071Z,83.80
2018-07-16T01:11:54.114Z,83.90
2018-07-16T01:14:23.247Z,83.60
2018-07-16T01:16:52.447Z,83.80
2018-07-16T01:19:21.486Z,83.80
2018-07-16T01:21:50.559Z,83.30
2018-07-16T01:24:19.634Z,82.20
2018-07-16T01:26:48.728Z,82.10
2018-07-16T01:29:17.765Z,81.70
2018-07-16T01:31:47.030Z,81.00
2018-07-16T01:34:16.082Z,80.80
2018-07-16T01:36:45.111Z,80.80
2018-07-16T01:39:14.171Z,79.70
2018-07-16T01:41:43.219Z,79.50
2018-07-16T01:44:12.264Z,79.20
2018-07-16T01:46:41.440Z,79.20
2018-07-16T01:49:10.486Z,78.60
2018-07-16T01:51:39.583Z,78.50
2018-07-16T01:54:08.646Z,78.70
2018-07-16T01:56:37.822Z,79.00
2018-07-16T01:59:06.895Z,77.90
2018-07-16T02:01:35.954Z,77.90
2018-07-16T02:04:05.035Z,78.30
2018-07-16T02:06:34.108Z,77.60
2018-07-16T02:09:03.316Z,77.40
2018-07-16T02:11:32.381Z,76.90
2018-07-16T02:14:01.464Z,76.40
2018-07-16T02:16:30.545Z,75.60
2018-07-16T02:18:59.607Z,75.60
2018-07-16T02:21:28.662Z,76.00
2018-07-16T02:23:57.743Z,75.60
2018-07-16T02:26:26.803Z,75.90
2018-07-16T02:28:55.991Z,75.50
2018-07-16T02:31:25.054Z,75.10
2018-07-16T02:33:54.184Z,74.90
2018-07-16T02:36:23.328Z,75.40
2018-07-16T02:38:52.351Z,75.70
2018-07-16T02:41:21.407Z,75.80
2018-07-16T02:43:50.457Z,75.80
2018-07-16T02:46:19.527Z,75.60
2018-07-16T02:48:48.587Z,76.20
2018-07-16T02:51:17.670Z,76.50
2018-07-16T02:53:46.680Z,76.20
2018-07-16T02:56:15.832Z,75.80
2018-07-16T02:58:44.851Z,75.10
2018-07-16T03:01:13.928Z,75.50
2018-07-16T03:03:43.023Z,75.40
2018-07-16T03:06:12.088Z,75.70
2018-07-16T03:08:41.156Z,75.70
2018-07-16T03:11:10.227Z,76.70
2018-07-16T03:13:39.301Z,77.00
2018-07-16T03:16:08.360Z,77.50
2018-07-16T03:18:37.592Z,77.60
2018-07-16T03:21:06.817Z,78.60
2018-07-16T03:23:35.920Z,79.10
2018-07-16T03:26:04.975Z,79.80
2018-07-16T03:28:34.040Z,80.00
2018-07-16T03:31:03.075Z,81.10
2018-07-16T03:33:32.149Z,80.80
2018-07-16T03:36:01.212Z,81.90
2018-07-16T03:38:30.434Z,81.90
2018-07-16T03:40:59.654Z,81.90
2018-07-16T03:43:29.833Z,82.10
2018-07-16T03:45:58.895Z,82.50
2018-07-16T03:48:27.931Z,82.40
2018-07-16T03:50:57.043Z,81.90
2018-07-16T03:53:26.101Z,81.60
2018-07-16T03:55:55.190Z,82.30
2018-07-16T03:58:24.219Z,82.50
2018-07-16T04:00:53.267Z,82.60
2018-07-16T04:03:22.327Z,83.30
2018-07-16T04:05:51.406Z,82.50
2018-07-16T04:08:20.498Z,82.40
2018-07-16T04:10:49.537Z,83.30
2018-07-16T04:13:18.571Z,83.70
2018-07-16T04:15:47.618Z,83.60
2018-07-16T04:18:20.407Z,82.80
2018-07-16T04:20:50.209Z,82.40
2018-07-16T04:23:19.562Z,81.70
2018-07-16T04:25:48.667Z,81.80
2018-07-16T04:28:17.731Z,82.90
2018-07-16T04:30:46.850Z,82.10
2018-07-16T04:33:15.873Z,81.90
2018-07-16T04:35:44.926Z,80.80
2018-07-16T04:38:13.959Z,81.60
2018-07-16T04:40:43.066Z,79.90
2018-07-16T04:43:12.243Z,79.60
2018-07-16T04:45:41.370Z,78.80
2018-07-16T04:48:10.464Z,78.70
